sensor_id;sensor_type;location;lat;lon;timestamp;pressure;altitude;pressure_sealevel;temperature;humidity
67803;BME280;54601;51.378;-1.342;2023-02-03T00:00:57;101524.07;;;21.84;28.99
67803;BME280;54601;51.378;-1.342;2023-02-03T00:03:23;101520.40;;;21.53;29.07
67803;BME280;54601;51.378;-1.342;2023-02-03T00:05:49;101518.41;;;21.55;29.05
67803;BME280;54601;51.378;-1.342;2023-02-03T00:08:15;101522.02;;;21.65;28.96
67803;BME280;54601;51.378;-1.342;2023-02-03T00:10:39;101520.53;;;21.57;29.04
67803;BME280;54601;51.378;-1.342;2023-02-03T00:13:05;101530.66;;;21.64;28.98
67803;BME280;54601;51.378;-1.342;2023-02-03T00:15:30;101539.53;;;21.64;28.98
67803;BME280;54601;51.378;-1.342;2023-02-03T00:17:56;101548.99;;;21.50;29.14
67803;BME280;54601;51.378;-1.342;2023-02-03T00:20:22;101549.77;;;21.59;29.06
67803;BME280;54601;51.378;-1.342;2023-02-03T00:22:47;101548.50;;;21.55;29.12
67803;BME280;54601;51.378;-1.342;2023-02-03T00:25:13;101540.23;;;21.56;29.11
67803;BME280;54601;51.378;-1.342;2023-02-03T00:27:39;101546.00;;;21.45;29.24
67803;BME280;54601;51.378;-1.342;2023-02-03T00:30:06;101536.01;;;21.57;29.10
67803;BME280;54601;51.378;-1.342;2023-02-03T00:32:31;101535.97;;;21.69;29.00
67803;BME280;54601;51.378;-1.342;2023-02-03T00:34:57;101532.44;;;21.64;29.06
67803;BME280;54601;51.378;-1.342;2023-02-03T00:37:23;101535.82;;;21.59;29.10
67803;BME280;54601;51.378;-1.342;2023-02-03T00:39:49;101538.56;;;21.48;29.21
67803;BME280;54601;51.378;-1.342;2023-02-03T00:42:15;101541.42;;;21.62;29.07
67803;BME280;54601;51.378;-1.342;2023-02-03T00:44:41;101543.98;;;21.86;29.12
67803;BME280;54601;51.378;-1.342;2023-02-03T00:47:06;101550.78;;;21.69;29.03
67803;BME280;54601;51.378;-1.342;2023-02-03T00:49:31;101551.29;;;21.96;29.03
67803;BME280;54601;51.378;-1.342;2023-02-03T00:51:56;101548.19;;;21.79;28.94
67803;BME280;54601;51.378;-1.342;2023-02-03T00:54:22;101532.56;;;21.66;29.06
67803;BME280;54601;51.378;-1.342;2023-02-03T00:56:48;101520.55;;;21.68;29.05
67803;BME280;54601;51.378;-1.342;2023-02-03T00:59:14;101509.98;;;21.45;29.06
67803;BME280;54601;51.378;-1.342;2023-02-03T01:01:40;101499.94;;;21.62;29.10
67803;BME280;54601;51.378;-1.342;2023-02-03T01:04:05;101507.30;;;21.52;28.99
67803;BME280;54601;51.378;-1.342;2023-02-03T01:06:31;101505.30;;;21.97;29.03
67803;BME280;54601;51.378;-1.342;2023-02-03T01:08:56;101512.64;;;21.69;29.03
67803;BME280;54601;51.378;-1.342;2023-02-03T01:11:24;101520.17;;;21.80;28.93
67803;BME280;54601;51.378;-1.342;2023-02-03T01:13:49;101512.94;;;21.73;28.99
67803;BME280;54601;51.378;-1.342;2023-02-03T01:16:15;101504.90;;;21.64;29.07
67803;BME280;54601;51.378;-1.342;2023-02-03T01:18:39;101503.95;;;21.54;28.95
67803;BME280;54601;51.378;-1.342;2023-02-03T01:21:06;101504.47;;;21.68;29.03
67803;BME280;54601;51.378;-1.342;2023-02-03T01:23:30;101508.64;;;21.58;29.16
67803;BME280;54601;51.378;-1.342;2023-02-03T01:26:01;101516.46;;;21.66;29.07
67803;BME280;54601;51.378;-1.342;2023-02-03T01:28:22;101514.78;;;21.37;29.13
67803;BME280;54601;51.378;-1.342;2023-02-03T01:30:48;101519.22;;;21.56;28.95
67803;BME280;54601;51.378;-1.342;2023-02-03T01:33:15;101515.26;;;21.68;29.03
67803;BME280;54601;51.378;-1.342;2023-02-03T01:35:41;101516.60;;;21.48;29.01
67803;BME280;54601;51.378;-1.342;2023-02-03T01:38:07;101516.48;;;21.71;29.02
67803;BME280;54601;51.378;-1.342;2023-02-03T01:40:33;101511.76;;;21.79;28.93
67803;BME280;54601;51.378;-1.342;2023-02-03T01:42:59;101505.09;;;21.65;29.06
67803;BME280;54601;51.378;-1.342;2023-02-03T01:45:25;101499.06;;;21.69;29.02
67803;BME280;54601;51.378;-1.342;2023-02-03T01:47:53;101493.11;;;21.43;29.04
67803;BME280;54601;51.378;-1.342;2023-02-03T01:50:20;101487.11;;;21.74;28.96
67803;BME280;54601;51.378;-1.342;2023-02-03T01:52:44;101488.91;;;21.73;28.96
67803;BME280;54601;51.378;-1.342;2023-02-03T01:55:09;101485.17;;;21.63;29.04
67803;BME280;54601;51.378;-1.342;2023-02-03T01:57:35;101489.05;;;21.64;29.05
67803;BME280;54601;51.378;-1.342;2023-02-03T02:00:00;101488.37;;;21.61;29.07
67803;BME280;54601;51.378;-1.342;2023-02-03T02:02:31;101485.06;;;21.62;29.05
67803;BME280;54601;51.378;-1.342;2023-02-03T02:04:55;101488.05;;;21.65;29.02
67803;BME280;54601;51.378;-1.342;2023-02-03T02:07:17;101490.57;;;21.46;28.98
67803;BME280;54601;51.378;-1.342;2023-02-03T02:09:43;101491.52;;;21.55;29.08
67803;BME280;54601;51.378;-1.342;2023-02-03T02:12:09;101490.64;;;21.55;29.11
67803;BME280;54601;51.378;-1.342;2023-02-03T02:14:34;101492.46;;;21.49;28.92
67803;BME280;54601;51.378;-1.342;2023-02-03T02:17:05;101486.35;;;21.68;28.95
67803;BME280;54601;51.378;-1.342;2023-02-03T02:21:58;101475.54;;;21.24;29.38
67803;BME280;54601;51.378;-1.342;2023-02-03T02:26:49;101472.99;;;21.48;28.92
67803;BME280;54601;51.378;-1.342;2023-02-03T02:29:19;101468.21;;;21.22;29.14
67803;BME280;54601;51.378;-1.342;2023-02-03T02:31:42;101471.17;;;21.48;29.10
67803;BME280;54601;51.378;-1.342;2023-02-03T02:33:58;101475.72;;;21.52;29.08
67803;BME280;54601;51.378;-1.342;2023-02-03T02:36:28;101473.47;;;21.67;28.93
67803;BME280;54601;51.378;-1.342;2023-02-03T02:38:53;101476.73;;;21.61;28.97
67803;BME280;54601;51.378;-1.342;2023-02-03T02:41:19;101474.98;;;21.37;29.25
67803;BME280;54601;51.378;-1.342;2023-02-03T02:43:41;101478.53;;;21.68;28.92
67803;BME280;54601;51.378;-1.342;2023-02-03T02:46:09;101481.03;;;21.66;28.93
67803;BME280;54601;51.378;-1.342;2023-02-03T02:48:34;101489.75;;;21.40;29.20
67803;BME280;54601;51.378;-1.342;2023-02-03T02:50:58;101497.83;;;21.28;29.08
67803;BME280;54601;51.378;-1.342;2023-02-03T02:53:26;101496.44;;;21.55;29.03
67803;BME280;54601;51.378;-1.342;2023-02-03T02:55:48;101507.46;;;21.53;29.04
67803;BME280;54601;51.378;-1.342;2023-02-03T02:58:15;101512.12;;;21.59;28.96
67803;BME280;54601;51.378;-1.342;2023-02-03T03:00:39;101510.88;;;21.39;29.18
67803;BME280;54601;51.378;-1.342;2023-02-03T03:03:12;101513.03;;;21.39;29.16
67803;BME280;54601;51.378;-1.342;2023-02-03T03:05:28;101507.73;;;21.58;28.96
67803;BME280;54601;51.378;-1.342;2023-02-03T03:07:56;101508.70;;;21.12;29.43
67803;BME280;54601;51.378;-1.342;2023-02-03T03:10:21;101508.23;;;21.33;29.26
67803;BME280;54601;51.378;-1.342;2023-02-03T03:12:48;101506.34;;;21.55;28.99
67803;BME280;54601;51.378;-1.342;2023-02-03T03:15:11;101517.96;;;21.46;29.07
67803;BME280;54601;51.378;-1.342;2023-02-03T03:17:36;101520.44;;;21.36;29.20
67803;BME280;54601;51.378;-1.342;2023-02-03T03:20:03;101523.30;;;20.96;29.36
67803;BME280;54601;51.378;-1.342;2023-02-03T03:22:27;101525.27;;;21.46;29.10
67803;BME280;54601;51.378;-1.342;2023-02-03T03:24:53;101523.55;;;21.35;29.18
67803;BME280;54601;51.378;-1.342;2023-02-03T03:27:19;101529.49;;;21.08;29.45
67803;BME280;54601;51.378;-1.342;2023-02-03T03:29:45;101538.83;;;21.33;29.20
67803;BME280;54601;51.378;-1.342;2023-02-03T03:32:08;101536.00;;;21.52;29.00
67803;BME280;54601;51.378;-1.342;2023-02-03T03:34:34;101534.27;;;21.47;29.04
67803;BME280;54601;51.378;-1.342;2023-02-03T03:37:04;101531.53;;;21.14;29.39
67803;BME280;54601;51.378;-1.342;2023-02-03T03:39:30;101529.54;;;21.10;29.45
67803;BME280;54601;51.378;-1.342;2023-02-03T03:41:57;101521.63;;;21.26;29.30
67803;BME280;54601;51.378;-1.342;2023-02-03T03:44:18;101521.27;;;21.14;29.39
67803;BME280;54601;51.378;-1.342;2023-02-03T03:46:47;101527.35;;;21.14;29.38
67803;BME280;54601;51.378;-1.342;2023-02-03T03:49:10;101525.98;;;21.29;29.25
67803;BME280;54601;51.378;-1.342;2023-02-03T03:51:39;101521.23;;;21.54;28.93
67803;BME280;54601;51.378;-1.342;2023-02-03T03:54:06;101510.50;;;21.06;29.45
67803;BME280;54601;51.378;-1.342;2023-02-03T03:56:31;101504.63;;;21.25;29.26
67803;BME280;54601;51.378;-1.342;2023-02-03T03:58:54;101501.32;;;21.04;29.48
67803;BME280;54601;51.378;-1.342;2023-02-03T04:01:20;101506.26;;;21.04;29.46
67803;BME280;54601;51.378;-1.342;2023-02-03T04:03:48;101503.03;;;21.35;29.13
67803;BME280;54601;51.378;-1.342;2023-02-03T04:06:12;101493.60;;;20.87;29.36
67803;BME280;54601;51.378;-1.342;2023-02-03T04:08:38;101501.90;;;21.00;29.50
67803;BME280;54601;51.378;-1.342;2023-02-03T04:11:04;101503.87;;;21.02;29.47
67803;BME280;54601;51.378;-1.342;2023-02-03T04:13:30;101501.64;;;21.05;29.41
67803;BME280;54601;51.378;-1.342;2023-02-03T04:15:56;101494.86;;;21.05;29.41
67803;BME280;54601;51.378;-1.342;2023-02-03T04:18:22;101500.72;;;21.09;29.37
67803;BME280;54601;51.378;-1.342;2023-02-03T04:20:48;101513.81;;;21.05;29.40
67803;BME280;54601;51.378;-1.342;2023-02-03T04:23:14;101524.72;;;21.20;29.51
67803;BME280;54601;51.378;-1.342;2023-02-03T04:25:40;101533.55;;;21.04;29.40
67803;BME280;54601;51.378;-1.342;2023-02-03T04:28:06;101535.16;;;20.92;29.50
67803;BME280;54601;51.378;-1.342;2023-02-03T04:30:31;101540.02;;;20.94;29.50
67803;BME280;54601;51.378;-1.342;2023-02-03T04:32:56;101546.28;;;20.96;29.47
67803;BME280;54601;51.378;-1.342;2023-02-03T04:35:22;101542.33;;;21.00;29.42
67803;BME280;54601;51.378;-1.342;2023-02-03T04:37:48;101533.74;;;20.69;29.47
67803;BME280;54601;51.378;-1.342;2023-02-03T04:40:13;101536.16;;;21.37;29.53
67803;BME280;54601;51.378;-1.342;2023-02-03T04:42:38;101531.40;;;20.89;29.51
67803;BME280;54601;51.378;-1.342;2023-02-03T04:45:04;101534.24;;;20.87;29.52
67803;BME280;54601;51.378;-1.342;2023-02-03T04:47:28;101536.45;;;21.18;29.46
67803;BME280;54601;51.378;-1.342;2023-02-03T04:49:53;101537.12;;;20.87;29.51
67803;BME280;54601;51.378;-1.342;2023-02-03T04:52:18;101542.76;;;20.88;29.48
67803;BME280;54601;51.378;-1.342;2023-02-03T04:54:43;101548.71;;;20.78;29.55
67803;BME280;54601;51.378;-1.342;2023-02-03T04:57:08;101550.78;;;20.78;29.56
67803;BME280;54601;51.378;-1.342;2023-02-03T04:59:33;101551.62;;;20.84;29.55
67803;BME280;54601;51.378;-1.342;2023-02-03T05:02:01;101555.13;;;20.80;29.54
67803;BME280;54601;51.378;-1.342;2023-02-03T05:04:23;101561.60;;;20.88;29.45
67803;BME280;54601;51.378;-1.342;2023-02-03T05:06:48;101562.63;;;20.86;29.48
67803;BME280;54601;51.378;-1.342;2023-02-03T05:09:13;101566.19;;;20.81;29.51
67803;BME280;54601;51.378;-1.342;2023-02-03T05:11:38;101562.73;;;21.01;29.58
67803;BME280;54601;51.378;-1.342;2023-02-03T05:14:04;101571.55;;;21.00;29.58
67803;BME280;54601;51.378;-1.342;2023-02-03T05:16:28;101581.51;;;20.72;29.60
67803;BME280;54601;51.378;-1.342;2023-02-03T05:18:53;101585.18;;;20.76;29.54
67803;BME280;54601;51.378;-1.342;2023-02-03T05:21:18;101583.66;;;20.41;29.66
67803;BME280;54601;51.378;-1.342;2023-02-03T05:23:44;101581.72;;;20.75;29.53
67803;BME280;54601;51.378;-1.342;2023-02-03T05:26:08;101580.96;;;20.77;29.51
67803;BME280;54601;51.378;-1.342;2023-02-03T05:28:34;101572.52;;;20.69;29.59
67803;BME280;54601;51.378;-1.342;2023-02-03T05:30:59;101576.93;;;20.64;29.63
67803;BME280;54601;51.378;-1.342;2023-02-03T05:33:24;101576.33;;;20.60;29.65
67803;BME280;54601;51.378;-1.342;2023-02-03T05:35:48;101577.69;;;20.89;29.63
67803;BME280;54601;51.378;-1.342;2023-02-03T05:38:13;101588.65;;;20.65;29.59
67803;BME280;54601;51.378;-1.342;2023-02-03T05:40:38;101591.63;;;20.63;29.59
67803;BME280;54601;51.378;-1.342;2023-02-03T05:43:04;101597.25;;;20.66;29.56
67803;BME280;54601;51.378;-1.342;2023-02-03T05:45:29;101600.59;;;20.67;29.55
67803;BME280;54601;51.378;-1.342;2023-02-03T05:47:54;101610.27;;;20.58;29.63
67803;BME280;54601;51.378;-1.342;2023-02-03T05:50:19;101613.54;;;20.69;29.51
67803;BME280;54601;51.378;-1.342;2023-02-03T05:52:44;101617.05;;;20.88;29.58
67803;BME280;54601;51.378;-1.342;2023-02-03T05:55:09;101620.00;;;20.86;29.59
67803;BME280;54601;51.378;-1.342;2023-02-03T05:57:34;101621.00;;;20.71;29.48
67803;BME280;54601;51.378;-1.342;2023-02-03T05:59:59;101622.32;;;20.56;29.61
67803;BME280;54601;51.378;-1.342;2023-02-03T06:02:24;101630.19;;;20.59;29.58
67803;BME280;54601;51.378;-1.342;2023-02-03T06:04:49;101634.38;;;20.63;29.52
67803;BME280;54601;51.378;-1.342;2023-02-03T06:07:14;101634.40;;;20.63;29.54
67803;BME280;54601;51.378;-1.342;2023-02-03T06:09:39;101637.63;;;20.73;29.43
67803;BME280;54601;51.378;-1.342;2023-02-03T06:12:04;101639.32;;;20.92;29.47
67803;BME280;54601;51.378;-1.342;2023-02-03T06:14:29;101638.68;;;20.65;29.48
67803;BME280;54601;51.378;-1.342;2023-02-03T06:16:54;101647.70;;;20.51;29.63
67803;BME280;54601;51.378;-1.342;2023-02-03T06:19:19;101641.65;;;20.78;29.61
67803;BME280;54601;51.378;-1.342;2023-02-03T06:21:44;101646.07;;;20.30;29.61
67803;BME280;54601;51.378;-1.342;2023-02-03T06:24:09;101646.40;;;20.57;29.58
67803;BME280;54601;51.378;-1.342;2023-02-03T06:26:34;101647.28;;;21.06;29.55
67803;BME280;54601;51.378;-1.342;2023-02-03T06:28:59;101646.36;;;20.52;29.60
67803;BME280;54601;51.378;-1.342;2023-02-03T06:31:24;101642.21;;;20.61;29.50
67803;BME280;54601;51.378;-1.342;2023-02-03T06:33:49;101645.17;;;20.74;29.63
67803;BME280;54601;51.378;-1.342;2023-02-03T06:36:14;101643.81;;;20.44;29.67
67803;BME280;54601;51.378;-1.342;2023-02-03T06:38:39;101644.06;;;20.41;29.69
67803;BME280;54601;51.378;-1.342;2023-02-03T06:41:04;101644.90;;;20.47;29.62
67803;BME280;54601;51.378;-1.342;2023-02-03T06:43:29;101648.95;;;20.40;29.69
67803;BME280;54601;51.378;-1.342;2023-02-03T06:45:54;101645.05;;;20.64;29.73
67803;BME280;54601;51.378;-1.342;2023-02-03T06:48:20;101646.16;;;20.39;29.69
67803;BME280;54601;51.378;-1.342;2023-02-03T06:50:45;101642.41;;;20.69;29.65
67803;BME280;54601;51.378;-1.342;2023-02-03T06:53:10;101639.39;;;20.64;29.69
67803;BME280;54601;51.378;-1.342;2023-02-03T06:55:35;101642.91;;;20.34;29.71
67803;BME280;54601;51.378;-1.342;2023-02-03T06:58:00;101637.27;;;20.65;29.66
67803;BME280;54601;51.378;-1.342;2023-02-03T07:00:25;101634.60;;;20.37;29.67
67803;BME280;54601;51.378;-1.342;2023-02-03T07:02:53;101635.36;;;20.62;29.68
67803;BME280;54601;51.378;-1.342;2023-02-03T07:05:15;101636.53;;;20.38;29.64
67803;BME280;54601;51.378;-1.342;2023-02-03T07:07:40;101639.34;;;20.37;29.65
67803;BME280;54601;51.378;-1.342;2023-02-03T07:10:06;101643.45;;;20.35;29.65
67803;BME280;54601;51.378;-1.342;2023-02-03T07:12:30;101642.60;;;20.86;29.63
67803;BME280;54601;51.378;-1.342;2023-02-03T07:14:55;101637.95;;;20.36;29.63
67803;BME280;54601;51.378;-1.342;2023-02-03T07:17:20;101637.50;;;20.59;29.66
67803;BME280;54601;51.378;-1.342;2023-02-03T07:19:45;101638.52;;;20.36;29.61
67803;BME280;54601;51.378;-1.342;2023-02-03T07:22:10;101640.54;;;20.36;29.61
67803;BME280;54601;51.378;-1.342;2023-02-03T07:24:35;101637.59;;;20.57;29.64
67803;BME280;54601;51.378;-1.342;2023-02-03T07:27:00;101635.69;;;20.37;29.57
67803;BME280;54601;51.378;-1.342;2023-02-03T07:29:25;101642.81;;;20.78;29.64
67803;BME280;54601;51.378;-1.342;2023-02-03T07:31:50;101649.10;;;20.79;29.61
67803;BME280;54601;51.378;-1.342;2023-02-03T07:34:16;101643.89;;;20.52;29.66
67803;BME280;54601;51.378;-1.342;2023-02-03T07:36:41;101645.34;;;20.23;29.68
67803;BME280;54601;51.378;-1.342;2023-02-03T07:39:06;101650.21;;;20.53;29.63
67803;BME280;54601;51.378;-1.342;2023-02-03T07:41:31;101655.62;;;20.26;29.63
67803;BME280;54601;51.378;-1.342;2023-02-03T07:43:56;101659.91;;;20.20;29.65
67803;BME280;54601;51.378;-1.342;2023-02-03T07:46:21;101672.48;;;20.44;29.70
67803;BME280;54601;51.378;-1.342;2023-02-03T07:48:46;101677.22;;;20.27;29.59
67803;BME280;54601;51.378;-1.342;2023-02-03T07:51:11;101680.79;;;20.27;29.58
67803;BME280;54601;51.378;-1.342;2023-02-03T07:53:36;101673.72;;;20.44;29.65
67803;BME280;54601;51.378;-1.342;2023-02-03T07:56:02;101670.45;;;20.35;29.75
67803;BME280;54601;51.378;-1.342;2023-02-03T07:58:26;101679.50;;;20.23;29.59
67803;BME280;54601;51.378;-1.342;2023-02-03T08:00:51;101684.21;;;20.46;29.60
67803;BME280;54601;51.378;-1.342;2023-02-03T08:03:16;101692.57;;;20.44;29.63
67803;BME280;54601;51.378;-1.342;2023-02-03T08:05:41;101693.32;;;20.18;29.60
67803;BME280;54601;51.378;-1.342;2023-02-03T08:08:06;101699.06;;;20.45;29.61
67803;BME280;54601;51.378;-1.342;2023-02-03T08:10:31;101701.24;;;20.15;29.61
67803;BME280;54601;51.378;-1.342;2023-02-03T08:12:56;101706.30;;;20.29;29.74
67803;BME280;54601;51.378;-1.342;2023-02-03T08:15:22;101709.75;;;20.53;29.70
67803;BME280;54601;51.378;-1.342;2023-02-03T08:17:48;101713.73;;;20.37;29.64
67803;BME280;54601;51.378;-1.342;2023-02-03T08:20:12;101710.99;;;20.53;29.69
67803;BME280;54601;51.378;-1.342;2023-02-03T08:22:37;101709.89;;;20.55;29.66
67803;BME280;54601;51.378;-1.342;2023-02-03T08:25:02;101713.96;;;20.14;29.57
67803;BME280;54601;51.378;-1.342;2023-02-03T08:27:27;101717.30;;;20.35;29.62
67803;BME280;54601;51.378;-1.342;2023-02-03T08:29:52;101717.50;;;20.28;29.67
67803;BME280;54601;51.378;-1.342;2023-02-03T08:32:18;101721.66;;;20.25;29.70
67803;BME280;54601;51.378;-1.342;2023-02-03T08:34:42;101720.91;;;20.25;29.71
67803;BME280;54601;51.378;-1.342;2023-02-03T08:37:09;101721.59;;;20.30;29.65
67803;BME280;54601;51.378;-1.342;2023-02-03T08:39:33;101729.04;;;20.45;29.70
67803;BME280;54601;51.378;-1.342;2023-02-03T08:41:58;101731.19;;;20.24;29.69
67803;BME280;54601;51.378;-1.342;2023-02-03T08:44:22;101732.34;;;20.51;29.65
67803;BME280;54601;51.378;-1.342;2023-02-03T08:46:49;101732.03;;;20.19;29.73
67803;BME280;54601;51.378;-1.342;2023-02-03T08:49:12;101732.92;;;20.33;29.58
67803;BME280;54601;51.378;-1.342;2023-02-03T08:51:39;101738.05;;;20.40;29.72
67803;BME280;54601;51.378;-1.342;2023-02-03T08:54:03;101733.83;;;20.25;29.66
67803;BME280;54601;51.378;-1.342;2023-02-03T08:56:28;101738.14;;;20.23;29.67
67803;BME280;54601;51.378;-1.342;2023-02-03T08:58:53;101739.32;;;20.18;29.72
67803;BME280;54601;51.378;-1.342;2023-02-03T09:01:18;101734.82;;;19.94;29.94
67803;BME280;54601;51.378;-1.342;2023-02-03T09:03:43;101738.20;;;20.41;29.69
67803;BME280;54601;51.378;-1.342;2023-02-03T09:06:08;101739.66;;;20.34;29.76
67803;BME280;54601;51.378;-1.342;2023-02-03T09:08:33;101741.19;;;20.20;29.68
67803;BME280;54601;51.378;-1.342;2023-02-03T09:10:58;101741.12;;;20.19;29.67
67803;BME280;54601;51.378;-1.342;2023-02-03T09:13:23;101740.24;;;20.30;29.79
67803;BME280;54601;51.378;-1.342;2023-02-03T09:15:48;101739.32;;;20.31;29.79
67803;BME280;54601;51.378;-1.342;2023-02-03T09:18:13;101737.31;;;20.17;29.94
67803;BME280;54601;51.378;-1.342;2023-02-03T09:20:38;101740.29;;;19.83;29.79
67803;BME280;54601;51.378;-1.342;2023-02-03T09:23:03;101741.14;;;20.31;29.79
67803;BME280;54601;51.378;-1.342;2023-02-03T09:25:28;101742.86;;;20.43;29.63
67803;BME280;54601;51.378;-1.342;2023-02-03T09:27:54;101751.20;;;20.05;29.81
67803;BME280;54601;51.378;-1.342;2023-02-03T09:30:19;101747.72;;;20.12;29.74
67803;BME280;54601;51.378;-1.342;2023-02-03T09:32:44;101746.32;;;19.90;29.96
67803;BME280;54601;51.378;-1.342;2023-02-03T09:35:09;101746.84;;;20.20;29.90
67803;BME280;54601;51.378;-1.342;2023-02-03T09:37:34;101748.33;;;20.05;29.85
67803;BME280;54601;51.378;-1.342;2023-02-03T09:39:59;101755.55;;;19.98;29.92
67803;BME280;54601;51.378;-1.342;2023-02-03T09:42:35;101751.58;;;19.99;29.90
67803;BME280;54601;51.378;-1.342;2023-02-03T09:44:57;101762.53;;;20.28;29.86
67803;BME280;54601;51.378;-1.342;2023-02-03T09:47:17;101764.35;;;20.23;29.87
67803;BME280;54601;51.378;-1.342;2023-02-03T09:49:42;101760.79;;;20.18;29.72
67803;BME280;54601;51.378;-1.342;2023-02-03T09:52:10;101761.06;;;20.55;29.60
67803;BME280;54601;51.378;-1.342;2023-02-03T09:54:34;101758.61;;;20.28;29.72
67803;BME280;54601;51.378;-1.342;2023-02-03T09:56:54;101752.53;;;20.13;30.04
67803;BME280;54601;51.378;-1.342;2023-02-03T09:59:20;101757.32;;;20.32;30.21
67803;BME280;54601;51.378;-1.342;2023-02-03T10:01:51;101755.46;;;19.86;30.26
67803;BME280;54601;51.378;-1.342;2023-02-03T10:04:20;101752.49;;;20.31;30.35
67803;BME280;54601;51.378;-1.342;2023-02-03T10:06:37;101755.35;;;20.12;30.37
67803;BME280;54601;51.378;-1.342;2023-02-03T10:11:37;101768.44;;;19.96;30.42
67803;BME280;54601;51.378;-1.342;2023-02-03T10:14:00;101768.87;;;20.21;30.10
67803;BME280;54601;51.378;-1.342;2023-02-03T10:16:24;101764.90;;;19.99;30.04
67803;BME280;54601;51.378;-1.342;2023-02-03T10:18:44;101767.66;;;20.46;29.83
67803;BME280;54601;51.378;-1.342;2023-02-03T10:21:11;101764.77;;;20.74;29.76
67803;BME280;54601;51.378;-1.342;2023-02-03T10:23:33;101762.26;;;20.23;29.82
67803;BME280;54601;51.378;-1.342;2023-02-03T10:25:57;101765.78;;;20.21;29.99
67803;BME280;54601;51.378;-1.342;2023-02-03T10:28:23;101769.95;;;20.47;29.91
67803;BME280;54601;51.378;-1.342;2023-02-03T10:30:48;101769.41;;;20.33;30.08
67803;BME280;54601;51.378;-1.342;2023-02-03T10:33:13;101769.30;;;20.15;30.23
67803;BME280;54601;51.378;-1.342;2023-02-03T10:35:40;101772.03;;;20.19;30.06
67803;BME280;54601;51.378;-1.342;2023-02-03T10:38:01;101772.77;;;20.37;29.91
67803;BME280;54601;51.378;-1.342;2023-02-03T10:40:26;101773.27;;;20.39;29.90
67803;BME280;54601;51.378;-1.342;2023-02-03T10:42:51;101776.31;;;20.26;30.35
67803;BME280;54601;51.378;-1.342;2023-02-03T10:45:16;101778.92;;;20.43;30.00
67803;BME280;54601;51.378;-1.342;2023-02-03T10:47:44;101778.82;;;20.77;29.86
67803;BME280;54601;51.378;-1.342;2023-02-03T10:50:13;101779.43;;;20.51;29.95
67803;BME280;54601;51.378;-1.342;2023-02-03T10:52:32;101783.23;;;20.59;29.82
67803;BME280;54601;51.378;-1.342;2023-02-03T10:54:57;101783.62;;;20.46;29.97
67803;BME280;54601;51.378;-1.342;2023-02-03T10:57:21;101782.09;;;20.24;29.98
67803;BME280;54601;51.378;-1.342;2023-02-03T10:59:48;101790.11;;;20.39;30.12
67803;BME280;54601;51.378;-1.342;2023-02-03T11:02:21;101799.11;;;20.56;30.01
67803;BME280;54601;51.378;-1.342;2023-02-03T11:04:37;101799.63;;;20.64;29.98
67803;BME280;54601;51.378;-1.342;2023-02-03T11:07:04;101809.39;;;20.60;30.01
67803;BME280;54601;51.378;-1.342;2023-02-03T11:09:31;101810.35;;;20.46;30.32
67803;BME280;54601;51.378;-1.342;2023-02-03T11:14:17;101829.06;;;20.63;30.59
67803;BME280;54601;51.378;-1.342;2023-02-03T11:16:42;101837.49;;;20.54;30.86
67803;BME280;54601;51.378;-1.342;2023-02-03T11:19:14;101838.34;;;20.41;31.07
67803;BME280;54601;51.378;-1.342;2023-02-03T11:21:40;101844.72;;;20.54;31.32
67803;BME280;54601;51.378;-1.342;2023-02-03T11:24:02;101848.35;;;20.20;31.22
67803;BME280;54601;51.378;-1.342;2023-02-03T11:26:25;101853.73;;;20.08;31.37
67803;BME280;54601;51.378;-1.342;2023-02-03T11:28:51;101853.41;;;20.15;31.32
67803;BME280;54601;51.378;-1.342;2023-02-03T11:31:19;101854.43;;;20.42;31.56
67803;BME280;54601;51.378;-1.342;2023-02-03T11:33:37;101857.99;;;20.11;31.59
67803;BME280;54601;51.378;-1.342;2023-02-03T11:36:03;101859.92;;;19.88;31.54
67803;BME280;54601;51.378;-1.342;2023-02-03T11:38:29;101856.49;;;20.23;31.38
67803;BME280;54601;51.378;-1.342;2023-02-03T11:40:58;101850.36;;;20.27;31.49
67803;BME280;54601;51.378;-1.342;2023-02-03T11:43:18;101844.10;;;19.97;31.53
67803;BME280;54601;51.378;-1.342;2023-02-03T11:45:44;101845.99;;;19.70;31.57
67803;BME280;54601;51.378;-1.342;2023-02-03T11:48:19;101846.63;;;20.14;31.52
67803;BME280;54601;51.378;-1.342;2023-02-03T11:50:36;101857.54;;;20.24;31.44
67803;BME280;54601;51.378;-1.342;2023-02-03T11:53:13;101867.36;;;20.08;31.31
67803;BME280;54601;51.378;-1.342;2023-02-03T11:55:33;101873.67;;;20.21;31.16
67803;BME280;54601;51.378;-1.342;2023-02-03T11:57:56;101877.80;;;20.22;31.16
67803;BME280;54601;51.378;-1.342;2023-02-03T12:00:23;101875.93;;;20.26;31.39
67803;BME280;54601;51.378;-1.342;2023-02-03T12:02:52;101876.92;;;20.01;31.39
67803;BME280;54601;51.378;-1.342;2023-02-03T12:05:14;101872.69;;;20.34;31.31
67803;BME280;54601;51.378;-1.342;2023-02-03T12:07:43;101871.90;;;20.31;31.25
67803;BME280;54601;51.378;-1.342;2023-02-03T12:09:59;101872.23;;;20.44;31.02
67803;BME280;54601;51.378;-1.342;2023-02-03T12:12:35;101873.17;;;20.10;31.20
67803;BME280;54601;51.378;-1.342;2023-02-03T12:14:51;101873.14;;;20.08;31.16
67803;BME280;54601;51.378;-1.342;2023-02-03T12:17:20;101872.15;;;20.02;31.17
67803;BME280;54601;51.378;-1.342;2023-02-03T12:19:44;101871.82;;;20.18;31.22
67803;BME280;54601;51.378;-1.342;2023-02-03T12:22:03;101878.81;;;20.21;31.14
67803;BME280;54601;51.378;-1.342;2023-02-03T12:24:33;101878.10;;;20.03;31.07
67803;BME280;54601;51.378;-1.342;2023-02-03T12:26:59;101880.09;;;19.87;31.22
67803;BME280;54601;51.378;-1.342;2023-02-03T12:29:20;101879.50;;;20.16;31.11
67803;BME280;54601;51.378;-1.342;2023-02-03T12:31:46;101877.65;;;19.97;31.33
67803;BME280;54601;51.378;-1.342;2023-02-03T12:34:14;101874.45;;;19.86;31.15
67803;BME280;54601;51.378;-1.342;2023-02-03T12:36:37;101877.56;;;19.93;31.32
67803;BME280;54601;51.378;-1.342;2023-02-03T12:39:01;101874.08;;;20.08;31.13